createdAt,value
2023-06-14T00:02:47.899Z,55.0
2023-06-14T00:07:47.820Z,55.4
2023-06-14T00:12:47.841Z,56.2
2023-06-14T00:17:47.917Z,56.6
2023-06-14T00:22:47.819Z,57.1
2023-06-14T00:27:47.823Z,57.0
2023-06-14T00:32:47.930Z,57.9
2023-06-14T00:37:47.840Z,58.1
2023-06-14T00:42:47.843Z,58.5
2023-06-14T00:47:47.869Z,58.3
2023-06-14T00:52:47.857Z,58.5
2023-06-14T00:57:47.847Z,59.2
2023-06-14T01:02:48.077Z,58.9
2023-06-14T01:07:47.847Z,59.4
2023-06-14T01:12:47.864Z,60.2
2023-06-14T01:17:58.330Z,59.8
2023-06-14T01:22:47.862Z,59.8
2023-06-14T01:27:47.866Z,59.1
2023-06-14T01:32:47.911Z,59.9
2023-06-14T01:37:47.870Z,60.4
2023-06-14T01:42:47.902Z,60.6
2023-06-14T01:47:48.000Z,61.0
2023-06-14T01:52:47.883Z,61.2
2023-06-14T01:57:47.899Z,62.0
2023-06-14T02:02:47.917Z,61.6
2023-06-14T02:07:47.889Z,62.1
2023-06-14T02:12:47.927Z,62.0
2023-06-14T02:17:47.914Z,61.9
2023-06-14T02:22:47.902Z,61.9
2023-06-14T02:27:47.908Z,61.9
2023-06-14T02:32:48.081Z,62.8
2023-06-14T02:37:47.909Z,62.9
2023-06-14T02:42:47.937Z,63.1
2023-06-14T02:47:48.174Z,63.0
2023-06-14T02:52:47.917Z,63.1
2023-06-14T02:57:47.917Z,63.4
2023-06-14T03:02:48.102Z,63.8
2023-06-14T03:07:47.921Z,64.0
2023-06-14T03:12:47.956Z,64.4
2023-06-14T03:17:47.958Z,64.5
2023-06-14T03:22:47.973Z,64.7
2023-06-14T03:27:47.935Z,65.0
2023-06-14T03:32:48.019Z,65.1
2023-06-14T03:37:47.970Z,65.1
2023-06-14T03:42:47.979Z,65.1
2023-06-14T03:47:45.221Z,65.4
2023-06-14T03:47:47.938Z,65.4
2023-06-14T03:52:47.959Z,65.5
2023-06-14T03:55:46.956Z,65.8
2023-06-14T03:57:47.973Z,65.8
2023-06-14T04:02:48.082Z,65.9
2023-06-14T04:08:18.075Z,66.8
2023-06-14T04:12:48.000Z,66.8
2023-06-14T04:17:48.067Z,66.2
2023-06-14T04:22:47.987Z,66.0
2023-06-14T04:27:47.985Z,66.3
2023-06-14T04:32:48.057Z,66.1
2023-06-14T04:37:47.986Z,66.1
2023-06-14T04:42:48.016Z,66.1
2023-06-14T04:47:48.035Z,65.8
2023-06-14T04:52:48.015Z,65.5
2023-06-14T04:57:48.016Z,65.3
2023-06-14T05:02:48.077Z,65.2
2023-06-14T05:07:48.014Z,63.9
2023-06-14T05:12:48.021Z,63.6
2023-06-14T05:17:48.067Z,64.0
2023-06-14T05:22:48.009Z,64.0
2023-06-14T05:27:48.005Z,63.6
2023-06-14T05:32:48.142Z,62.9
2023-06-14T05:37:48.014Z,63.0
2023-06-14T05:42:48.096Z,62.5
2023-06-14T05:47:48.048Z,62.6
2023-06-14T05:52:48.052Z,62.0
2023-06-14T05:57:48.049Z,62.2
2023-06-14T06:02:48.156Z,60.7
2023-06-14T06:07:48.055Z,60.0
2023-06-14T06:12:48.098Z,59.3
2023-06-14T06:17:55.650Z,57.9
2023-06-14T06:22:48.070Z,56.9
2023-06-14T06:27:48.047Z,52.8
2023-06-14T06:32:48.132Z,51.9
2023-06-14T06:42:48.066Z,49.9
2023-06-14T06:47:48.141Z,49.2
2023-06-14T06:52:48.164Z,48.0
2023-06-14T06:57:48.082Z,48.0
2023-06-14T07:02:48.152Z,48.2
2023-06-14T07:07:48.099Z,46.5
2023-06-14T07:12:48.093Z,46.3
2023-06-14T07:17:48.141Z,46.0
2023-06-14T07:22:48.173Z,44.6
2023-06-14T07:27:48.129Z,43.0
2023-06-14T07:32:48.237Z,42.9
2023-06-14T07:37:48.124Z,41.8
2023-06-14T07:42:48.105Z,41.7
2023-06-14T07:47:48.233Z,40.8
2023-06-14T07:52:48.119Z,40.3
2023-06-14T07:57:48.118Z,39.8
2023-06-14T08:02:48.241Z,37.9
2023-06-14T08:07:48.173Z,38.0
2023-06-14T08:12:48.125Z,35.1
2023-06-14T08:17:48.174Z,35.0
2023-06-14T08:22:48.147Z,34.4
2023-06-14T08:27:48.125Z,35.1
2023-06-14T08:32:51.542Z,34.8
2023-06-14T08:37:48.158Z,33.5
2023-06-14T08:42:48.142Z,33.9
2023-06-14T08:47:48.166Z,34.3
2023-06-14T08:52:48.173Z,33.5
2023-06-14T08:57:48.150Z,32.7
2023-06-14T09:02:48.148Z,32.8
2023-06-14T09:07:48.163Z,32.7
2023-06-14T09:12:48.153Z,33.0
2023-06-14T09:17:48.161Z,32.1
2023-06-14T09:22:48.250Z,33.5
2023-06-14T09:27:48.170Z,33.0
2023-06-14T09:32:48.170Z,32.5
2023-06-14T09:37:48.178Z,31.2
2023-06-14T09:42:48.180Z,31.4
2023-06-14T09:48:01.114Z,31.6
2023-06-14T09:52:48.283Z,30.2
2023-06-14T09:57:48.184Z,31.6
2023-06-14T10:02:48.241Z,30.8
2023-06-14T10:07:48.204Z,31.9
2023-06-14T10:12:48.205Z,33.0
2023-06-14T10:17:48.229Z,33.1
2023-06-14T10:22:48.343Z,33.3
2023-06-14T10:27:48.333Z,33.7
2023-06-14T10:32:48.234Z,34.8
2023-06-14T10:37:48.225Z,33.7
2023-06-14T10:42:48.242Z,34.9
2023-06-14T10:47:48.265Z,33.8
2023-06-14T10:52:48.256Z,33.6
2023-06-14T10:57:52.207Z,33.9
2023-06-14T11:02:48.406Z,34.4
2023-06-14T11:07:48.255Z,33.6
2023-06-14T11:12:48.230Z,34.8
2023-06-14T11:17:48.296Z,35.8
2023-06-14T11:22:48.290Z,34.9
2023-06-14T11:27:48.280Z,34.6
2023-06-14T11:32:48.279Z,35.1
2023-06-14T11:37:48.255Z,35.4
2023-06-14T11:42:48.279Z,33.8
2023-06-14T11:47:48.347Z,33.6
2023-06-14T11:52:48.358Z,34.1
2023-06-14T11:57:48.276Z,34.0
2023-06-14T12:02:48.460Z,34.0
2023-06-14T12:07:48.278Z,34.5
2023-06-14T12:12:48.279Z,34.3
2023-06-14T12:17:48.296Z,34.0
2023-06-14T12:22:48.319Z,33.8
2023-06-14T12:27:48.277Z,33.4
2023-06-14T12:32:48.400Z,34.7
2023-06-14T12:37:48.307Z,35.0
2023-06-14T12:42:48.313Z,34.4
2023-06-14T12:47:48.367Z,34.8
2023-06-14T12:52:48.321Z,34.8
2023-06-14T12:57:48.304Z,33.6
2023-06-14T13:02:48.381Z,33.4
2023-06-14T13:07:48.342Z,33.7
2023-06-14T13:12:48.314Z,34.3
2023-06-14T13:17:48.342Z,33.8
2023-06-14T13:22:48.346Z,34.4
2023-06-14T13:27:48.337Z,33.2
2023-06-14T13:32:50.535Z,34.8
2023-06-14T13:37:48.362Z,34.5
2023-06-14T13:42:48.339Z,32.5
2023-06-14T13:47:48.385Z,32.5
2023-06-14T13:52:48.356Z,32.0
2023-06-14T13:57:48.341Z,32.5
2023-06-14T14:02:48.364Z,33.4
2023-06-14T14:07:48.350Z,33.9
2023-06-14T14:12:49.873Z,32.5
2023-06-14T14:17:48.434Z,32.5
2023-06-14T14:22:48.425Z,32.8
2023-06-14T14:27:48.367Z,31.3
2023-06-14T14:32:48.410Z,31.9
2023-06-14T14:37:48.371Z,33.1
2023-06-14T14:42:48.365Z,32.5
2023-06-14T14:47:48.677Z,31.5
2023-06-14T14:52:48.397Z,31.7
2023-06-14T14:57:48.380Z,32.5
2023-06-14T15:02:48.489Z,32.3
2023-06-14T15:07:48.409Z,32.2
2023-06-14T15:12:48.409Z,32.4
2023-06-14T15:17:48.432Z,32.0
2023-06-14T15:22:50.773Z,32.4
2023-06-14T15:27:48.402Z,32.3
2023-06-14T15:32:48.460Z,33.1
2023-06-14T15:37:48.412Z,32.1
2023-06-14T15:42:48.405Z,32.3
2023-06-14T15:47:48.479Z,32.5
2023-06-14T15:52:49.453Z,31.2
2023-06-14T15:57:48.424Z,30.8
2023-06-14T16:02:48.552Z,31.4
2023-06-14T16:07:48.432Z,31.9
2023-06-14T16:12:48.423Z,32.9
2023-06-14T16:17:48.492Z,32.9
2023-06-14T16:22:48.506Z,32.7
2023-06-14T16:27:48.435Z,32.9
2023-06-14T16:32:50.079Z,32.9
2023-06-14T16:37:48.445Z,33.5
2023-06-14T16:42:48.453Z,33.8
2023-06-14T16:47:48.482Z,33.8
2023-06-14T16:52:48.521Z,33.9
2023-06-14T16:57:48.465Z,34.2
2023-06-14T17:02:48.552Z,33.7
2023-06-14T17:07:48.492Z,34.8
2023-06-14T17:12:48.473Z,34.8
2023-06-14T17:17:48.513Z,35.0
2023-06-14T17:22:48.513Z,34.9
2023-06-14T17:27:48.465Z,35.7
2023-06-14T17:32:48.544Z,35.9
2023-06-14T17:37:48.499Z,36.3
2023-06-14T17:42:48.482Z,36.4
2023-06-14T17:47:49.287Z,40.6
2023-06-14T17:52:48.517Z,40.4
2023-06-14T17:57:48.496Z,41.4
2023-06-14T18:02:48.539Z,42.0
2023-06-14T18:07:48.517Z,39.9
2023-06-14T18:12:48.499Z,40.2
2023-06-14T18:17:48.550Z,40.4
2023-06-14T18:22:48.534Z,41.3
2023-06-14T18:27:48.511Z,40.5
2023-06-14T18:32:48.727Z,40.3
2023-06-14T18:37:48.528Z,41.9
2023-06-14T18:42:48.535Z,41.4
2023-06-14T18:47:48.543Z,41.2
2023-06-14T18:52:48.552Z,39.9
2023-06-14T18:57:48.534Z,39.4
2023-06-14T19:02:48.650Z,39.6
2023-06-14T19:07:48.557Z,40.2
2023-06-14T19:12:48.564Z,41.0
2023-06-14T19:17:48.578Z,41.8
2023-06-14T19:22:48.559Z,41.9
2023-06-14T19:27:48.548Z,42.5
2023-06-14T19:32:48.748Z,43.4
2023-06-14T19:37:48.571Z,44.3
2023-06-14T19:42:48.557Z,44.4
2023-06-14T19:47:48.607Z,44.7
2023-06-14T19:52:48.741Z,45.2
2023-06-14T19:57:48.575Z,45.4
2023-06-14T20:02:48.593Z,45.4
2023-06-14T20:07:48.609Z,47.1
2023-06-14T20:12:48.585Z,47.4
2023-06-14T20:17:48.624Z,48.3
2023-06-14T20:22:48.895Z,48.8
2023-06-14T20:27:48.589Z,49.7
2023-06-14T20:32:48.630Z,50.0
2023-06-14T20:37:48.605Z,51.2
2023-06-14T20:42:48.610Z,52.0
2023-06-14T20:47:48.687Z,51.5
2023-06-14T20:52:48.629Z,51.9
2023-06-14T20:57:49.179Z,51.2
2023-06-14T21:02:48.647Z,52.1
2023-06-14T21:07:48.621Z,50.9
2023-06-14T21:12:48.633Z,51.4
2023-06-14T21:17:48.714Z,51.6
2023-06-14T21:22:48.690Z,52.8
2023-06-14T21:27:48.626Z,53.7
2023-06-14T21:32:48.741Z,54.7
2023-06-14T21:37:48.641Z,56.0
2023-06-14T21:42:48.638Z,56.2
2023-06-14T21:47:48.656Z,56.0
2023-06-14T21:52:48.669Z,55.0
2023-06-14T21:57:48.647Z,55.2
2023-06-14T22:02:48.725Z,55.0
2023-06-14T22:07:48.711Z,56.0
2023-06-14T22:12:48.655Z,57.1
2023-06-14T22:17:48.881Z,57.5
2023-06-14T22:22:49.032Z,58.1
2023-06-14T22:27:48.726Z,57.1
2023-06-14T22:32:48.812Z,57.9
2023-06-14T22:37:48.684Z,57.7
2023-06-14T22:42:48.678Z,58.5
2023-06-14T22:47:48.696Z,59.0
2023-06-14T22:52:48.705Z,59.4
2023-06-14T22:57:48.757Z,59.9
2023-06-14T23:02:48.766Z,60.2
2023-06-14T23:07:48.729Z,60.7
2023-06-14T23:12:48.689Z,62.0
2023-06-14T23:17:48.752Z,63.3
2023-06-14T23:22:48.758Z,63.7
2023-06-14T23:27:48.721Z,63.7
2023-06-14T23:32:48.744Z,64.5
2023-06-14T23:37:48.765Z,64.9
2023-06-14T23:42:48.744Z,65.3
2023-06-14T23:47:48.798Z,65.5
2023-06-14T23:52:48.741Z,65.9
2023-06-14T23:57:48.728Z,66.8
